sensor_id;sensor_type;location;lat;lon;timestamp;P1;durP1;ratioP1;P2;durP2;ratioP2
43008;SDS011;28634;45.454;11.106;2022-08-05T04:32:02;9.00;;;4.78;;
43008;SDS011;28634;45.454;11.106;2022-08-05T04:34:32;10.13;;;4.68;;
43008;SDS011;28634;45.454;11.106;2022-08-05T04:37:20;14.35;;;6.60;;
43008;SDS011;28634;45.454;11.106;2022-08-05T04:40:08;10.45;;;5.40;;
43008;SDS011;28634;45.454;11.106;2022-08-05T04:42:44;8.95;;;4.82;;
43008;SDS011;28634;45.454;11.106;2022-08-05T04:45:15;13.68;;;4.63;;
43008;SDS011;28634;45.454;11.106;2022-08-05T04:48:03;9.43;;;3.80;;
43008;SDS011;28634;45.454;11.106;2022-08-05T04:50:52;11.75;;;5.15;;
43008;SDS011;28634;45.454;11.106;2022-08-05T04:53:42;8.95;;;3.90;;
43008;SDS011;28634;45.454;11.106;2022-08-05T05:14:50;9.80;;;3.50;;
43008;SDS011;28634;45.454;11.106;2022-08-05T05:25:03;5.70;;;2.78;;
43008;SDS011;28634;45.454;11.106;2022-08-05T05:31:34;5.28;;;2.90;;
43008;SDS011;28634;45.454;11.106;2022-08-05T05:40:47;6.50;;;2.70;;
43008;SDS011;28634;45.454;11.106;2022-08-05T05:43:20;6.57;;;2.67;;
43008;SDS011;28634;45.454;11.106;2022-08-05T05:46:09;7.90;;;2.97;;
43008;SDS011;28634;45.454;11.106;2022-08-05T05:48:44;6.27;;;2.80;;
43008;SDS011;28634;45.454;11.106;2022-08-05T05:51:20;4.22;;;2.65;;
43008;SDS011;28634;45.454;11.106;2022-08-05T05:53:53;3.75;;;2.60;;
43008;SDS011;28634;45.454;11.106;2022-08-05T05:56:29;6.40;;;2.65;;
43008;SDS011;28634;45.454;11.106;2022-08-05T05:59:03;9.88;;;2.85;;
43008;SDS011;28634;45.454;11.106;2022-08-05T06:01:37;4.18;;;2.65;;
43008;SDS011;28634;45.454;11.106;2022-08-05T06:04:23;8.27;;;2.85;;
43008;SDS011;28634;45.454;11.106;2022-08-05T06:06:59;5.93;;;2.53;;
43008;SDS011;28634;45.454;11.106;2022-08-05T06:09:27;6.85;;;2.75;;
43008;SDS011;28634;45.454;11.106;2022-08-05T06:12:16;6.82;;;2.58;;
43008;SDS011;28634;45.454;11.106;2022-08-05T06:14:52;5.18;;;2.90;;
43008;SDS011;28634;45.454;11.106;2022-08-05T06:17:25;6.90;;;2.90;;
43008;SDS011;28634;45.454;11.106;2022-08-05T06:19:56;7.72;;;2.60;;
43008;SDS011;28634;45.454;11.106;2022-08-05T06:22:28;5.43;;;2.75;;
43008;SDS011;28634;45.454;11.106;2022-08-05T06:25:04;7.07;;;2.30;;
43008;SDS011;28634;45.454;11.106;2022-08-05T06:28:02;7.30;;;2.60;;
43008;SDS011;28634;45.454;11.106;2022-08-05T06:30:46;8.48;;;2.42;;
43008;SDS011;28634;45.454;11.106;2022-08-05T06:33:14;9.02;;;3.08;;
43008;SDS011;28634;45.454;11.106;2022-08-05T06:35:44;6.85;;;3.10;;
43008;SDS011;28634;45.454;11.106;2022-08-05T06:38:34;17.95;;;3.33;;
43008;SDS011;28634;45.454;11.106;2022-08-05T06:41:05;8.70;;;2.92;;
43008;SDS011;28634;45.454;11.106;2022-08-05T06:43:41;10.60;;;3.13;;
43008;SDS011;28634;45.454;11.106;2022-08-05T06:46:34;8.43;;;3.15;;
43008;SDS011;28634;45.454;11.106;2022-08-05T06:52:05;12.73;;;3.10;;
43008;SDS011;28634;45.454;11.106;2022-08-05T06:54:52;7.13;;;2.60;;
43008;SDS011;28634;45.454;11.106;2022-08-05T06:57:27;9.85;;;2.90;;
43008;SDS011;28634;45.454;11.106;2022-08-05T07:00:24;12.30;;;3.00;;
43008;SDS011;28634;45.454;11.106;2022-08-05T07:03:12;6.40;;;2.63;;
43008;SDS011;28634;45.454;11.106;2022-08-05T07:09:40;7.57;;;2.50;;
43008;SDS011;28634;45.454;11.106;2022-08-05T07:12:37;2.80;;;2.17;;
43008;SDS011;28634;45.454;11.106;2022-08-05T07:15:35;4.82;;;2.67;;
43008;SDS011;28634;45.454;11.106;2022-08-05T07:18:41;4.80;;;2.50;;
43008;SDS011;28634;45.454;11.106;2022-08-05T07:21:15;10.02;;;3.00;;
43008;SDS011;28634;45.454;11.106;2022-08-05T07:24:09;7.43;;;2.60;;
43008;SDS011;28634;45.454;11.106;2022-08-05T07:30:04;5.38;;;2.60;;
43008;SDS011;28634;45.454;11.106;2022-08-05T07:32:55;3.95;;;2.50;;
43008;SDS011;28634;45.454;11.106;2022-08-05T07:35:22;3.95;;;2.53;;
43008;SDS011;28634;45.454;11.106;2022-08-05T07:38:13;5.57;;;2.75;;
43008;SDS011;28634;45.454;11.106;2022-08-05T07:44:21;5.20;;;2.53;;
43008;SDS011;28634;45.454;11.106;2022-08-05T07:47:02;5.22;;;2.60;;
43008;SDS011;28634;45.454;11.106;2022-08-05T07:49:35;3.60;;;2.30;;
43008;SDS011;28634;45.454;11.106;2022-08-05T07:52:20;4.23;;;2.40;;
43008;SDS011;28634;45.454;11.106;2022-08-05T07:54:54;7.50;;;2.43;;
43008;SDS011;28634;45.454;11.106;2022-08-05T07:57:24;4.05;;;2.30;;
43008;SDS011;28634;45.454;11.106;2022-08-05T08:00:17;4.35;;;2.00;;
43008;SDS011;28634;45.454;11.106;2022-08-05T08:02:47;5.00;;;2.38;;
43008;SDS011;28634;45.454;11.106;2022-08-05T08:05:35;3.15;;;2.15;;
43008;SDS011;28634;45.454;11.106;2022-08-05T08:08:18;3.90;;;2.20;;
43008;SDS011;28634;45.454;11.106;2022-08-05T08:10:45;5.22;;;2.30;;
43008;SDS011;28634;45.454;11.106;2022-08-05T08:13:18;4.32;;;2.20;;
43008;SDS011;28634;45.454;11.106;2022-08-05T08:15:54;7.15;;;2.38;;
43008;SDS011;28634;45.454;11.106;2022-08-05T08:18:42;5.10;;;2.10;;
43008;SDS011;28634;45.454;11.106;2022-08-05T08:21:15;3.15;;;2.15;;
43008;SDS011;28634;45.454;11.106;2022-08-05T08:23:43;3.63;;;2.00;;
43008;SDS011;28634;45.454;11.106;2022-08-05T08:29:04;4.38;;;2.25;;
43008;SDS011;28634;45.454;11.106;2022-08-05T08:31:51;2.97;;;2.10;;
43008;SDS011;28634;45.454;11.106;2022-08-05T08:34:23;3.83;;;2.10;;
43008;SDS011;28634;45.454;11.106;2022-08-05T08:36:58;2.80;;;2.00;;
43008;SDS011;28634;45.454;11.106;2022-08-05T08:39:30;2.42;;;1.88;;
43008;SDS011;28634;45.454;11.106;2022-08-05T08:42:03;2.70;;;1.90;;
43008;SDS011;28634;45.454;11.106;2022-08-05T08:45:02;2.75;;;1.80;;
43008;SDS011;28634;45.454;11.106;2022-08-05T08:47:51;4.00;;;2.10;;
43008;SDS011;28634;45.454;11.106;2022-08-05T08:50:43;7.63;;;2.72;;
43008;SDS011;28634;45.454;11.106;2022-08-05T08:53:36;2.70;;;2.00;;
43008;SDS011;28634;45.454;11.106;2022-08-05T08:56:10;4.25;;;2.15;;
43008;SDS011;28634;45.454;11.106;2022-08-05T08:58:49;3.63;;;1.98;;
43008;SDS011;28634;45.454;11.106;2022-08-05T09:01:31;7.30;;;2.38;;
43008;SDS011;28634;45.454;11.106;2022-08-05T09:04:46;4.57;;;2.45;;
43008;SDS011;28634;45.454;11.106;2022-08-05T09:07:38;5.47;;;2.20;;
43008;SDS011;28634;45.454;11.106;2022-08-05T09:10:31;4.70;;;2.20;;
43008;SDS011;28634;45.454;11.106;2022-08-05T09:13:05;5.00;;;2.40;;
43008;SDS011;28634;45.454;11.106;2022-08-05T09:15:55;4.65;;;2.20;;
43008;SDS011;28634;45.454;11.106;2022-08-05T09:18:29;4.38;;;2.20;;
43008;SDS011;28634;45.454;11.106;2022-08-05T09:21:19;5.50;;;2.40;;
43008;SDS011;28634;45.454;11.106;2022-08-05T09:24:10;3.60;;;2.00;;
43008;SDS011;28634;45.454;11.106;2022-08-05T09:26:40;6.30;;;2.45;;
43008;SDS011;28634;45.454;11.106;2022-08-05T09:29:12;4.05;;;2.10;;
43008;SDS011;28634;45.454;11.106;2022-08-05T09:31:59;5.43;;;2.28;;
43008;SDS011;28634;45.454;11.106;2022-08-05T09:34:51;3.33;;;2.25;;
43008;SDS011;28634;45.454;11.106;2022-08-05T09:37:28;4.35;;;2.00;;
43008;SDS011;28634;45.454;11.106;2022-08-05T09:40:31;2.65;;;2.17;;
43008;SDS011;28634;45.454;11.106;2022-08-05T09:43:34;2.47;;;1.90;;
43008;SDS011;28634;45.454;11.106;2022-08-05T09:46:21;3.00;;;2.20;;
43008;SDS011;28634;45.454;11.106;2022-08-05T09:49:01;2.72;;;2.00;;
43008;SDS011;28634;45.454;11.106;2022-08-05T09:51:45;3.00;;;2.13;;
43008;SDS011;28634;45.454;11.106;2022-08-05T09:54:28;2.83;;;1.90;;
43008;SDS011;28634;45.454;11.106;2022-08-05T09:57:16;6.38;;;2.00;;
43008;SDS011;28634;45.454;11.106;2022-08-05T10:00:16;3.63;;;1.98;;
43008;SDS011;28634;45.454;11.106;2022-08-05T10:02:50;5.47;;;1.92;;
43008;SDS011;28634;45.454;11.106;2022-08-05T10:05:25;4.35;;;2.03;;
43008;SDS011;28634;45.454;11.106;2022-08-05T10:08:06;3.92;;;1.92;;
43008;SDS011;28634;45.454;11.106;2022-08-05T10:10:54;3.60;;;2.20;;
43008;SDS011;28634;45.454;11.106;2022-08-05T10:13:37;2.88;;;2.00;;
43008;SDS011;28634;45.454;11.106;2022-08-05T10:16:32;3.58;;;1.90;;
43008;SDS011;28634;45.454;11.106;2022-08-05T10:19:18;5.70;;;2.20;;
43008;SDS011;28634;45.454;11.106;2022-08-05T10:22:06;5.85;;;2.42;;
43008;SDS011;28634;45.454;11.106;2022-08-05T10:24:54;6.03;;;2.60;;
43008;SDS011;28634;45.454;11.106;2022-08-05T10:27:22;3.65;;;2.28;;
43008;SDS011;28634;45.454;11.106;2022-08-05T10:30:10;4.13;;;1.95;;
43008;SDS011;28634;45.454;11.106;2022-08-05T10:32:57;4.88;;;2.55;;
43008;SDS011;28634;45.454;11.106;2022-08-05T10:35:28;3.35;;;2.63;;
43008;SDS011;28634;45.454;11.106;2022-08-05T10:38:05;3.10;;;2.17;;
43008;SDS011;28634;45.454;11.106;2022-08-05T10:40:38;5.80;;;2.58;;
43008;SDS011;28634;45.454;11.106;2022-08-05T10:43:29;4.93;;;2.40;;
43008;SDS011;28634;45.454;11.106;2022-08-05T10:46:17;8.07;;;2.38;;
43008;SDS011;28634;45.454;11.106;2022-08-05T10:48:55;6.18;;;2.33;;
43008;SDS011;28634;45.454;11.106;2022-08-05T10:51:42;2.60;;;1.95;;
43008;SDS011;28634;45.454;11.106;2022-08-05T10:54:46;4.03;;;2.50;;
43008;SDS011;28634;45.454;11.106;2022-08-05T10:57:27;4.10;;;2.17;;
43008;SDS011;28634;45.454;11.106;2022-08-05T11:00:07;4.75;;;2.65;;
43008;SDS011;28634;45.454;11.106;2022-08-05T11:09:03;2.80;;;2.30;;
43008;SDS011;28634;45.454;11.106;2022-08-05T11:11:41;4.50;;;2.33;;
43008;SDS011;28634;45.454;11.106;2022-08-05T11:14:22;4.30;;;2.40;;
43008;SDS011;28634;45.454;11.106;2022-08-05T11:26:29;4.30;;;2.42;;
43008;SDS011;28634;45.454;11.106;2022-08-05T11:29:02;5.03;;;2.65;;
43008;SDS011;28634;45.454;11.106;2022-08-05T11:31:42;2.70;;;2.40;;
43008;SDS011;28634;45.454;11.106;2022-08-05T11:34:38;8.30;;;2.67;;
43008;SDS011;28634;45.454;11.106;2022-08-05T11:37:40;5.65;;;2.47;;
43008;SDS011;28634;45.454;11.106;2022-08-05T11:43:29;5.40;;;2.50;;
43008;SDS011;28634;45.454;11.106;2022-08-05T11:46:17;4.35;;;2.58;;
43008;SDS011;28634;45.454;11.106;2022-08-05T11:48:58;7.50;;;2.35;;
43008;SDS011;28634;45.454;11.106;2022-08-05T11:51:27;5.07;;;2.40;;
43008;SDS011;28634;45.454;11.106;2022-08-05T11:54:24;3.90;;;2.40;;
43008;SDS011;28634;45.454;11.106;2022-08-05T11:59:34;3.88;;;2.30;;
43008;SDS011;28634;45.454;11.106;2022-08-05T12:02:15;5.22;;;2.50;;
43008;SDS011;28634;45.454;11.106;2022-08-05T12:04:57;2.85;;;2.30;;
43008;SDS011;28634;45.454;11.106;2022-08-05T12:07:32;5.28;;;2.67;;
43008;SDS011;28634;45.454;11.106;2022-08-05T12:10:20;4.32;;;2.53;;
43008;SDS011;28634;45.454;11.106;2022-08-05T12:13:11;7.70;;;2.67;;
43008;SDS011;28634;45.454;11.106;2022-08-05T12:16:03;5.80;;;2.40;;
43008;SDS011;28634;45.454;11.106;2022-08-05T12:18:41;4.07;;;2.50;;
43008;SDS011;28634;45.454;11.106;2022-08-05T12:26:34;4.57;;;2.83;;
43008;SDS011;28634;45.454;11.106;2022-08-05T12:29:13;3.97;;;2.60;;
43008;SDS011;28634;45.454;11.106;2022-08-05T12:31:53;4.78;;;2.60;;
43008;SDS011;28634;45.454;11.106;2022-08-05T12:34:29;4.15;;;2.78;;
43008;SDS011;28634;45.454;11.106;2022-08-05T12:36:59;5.28;;;2.55;;
43008;SDS011;28634;45.454;11.106;2022-08-05T12:39:33;4.53;;;2.58;;
43008;SDS011;28634;45.454;11.106;2022-08-05T12:42:07;4.82;;;2.90;;
43008;SDS011;28634;45.454;11.106;2022-08-05T12:44:40;4.40;;;2.50;;
43008;SDS011;28634;45.454;11.106;2022-08-05T12:47:10;3.97;;;2.28;;
43008;SDS011;28634;45.454;11.106;2022-08-05T12:49:44;2.97;;;2.42;;
43008;SDS011;28634;45.454;11.106;2022-08-05T12:52:30;4.93;;;2.58;;
43008;SDS011;28634;45.454;11.106;2022-08-05T12:55:16;5.18;;;2.70;;
43008;SDS011;28634;45.454;11.106;2022-08-05T12:57:54;4.90;;;2.77;;
43008;SDS011;28634;45.454;11.106;2022-08-05T13:00:43;3.45;;;2.50;;
43008;SDS011;28634;45.454;11.106;2022-08-05T13:03:37;5.55;;;2.92;;
43008;SDS011;28634;45.454;11.106;2022-08-05T13:06:11;4.95;;;2.67;;
43008;SDS011;28634;45.454;11.106;2022-08-05T13:08:44;4.47;;;2.72;;
43008;SDS011;28634;45.454;11.106;2022-08-05T13:11:21;5.90;;;2.80;;
43008;SDS011;28634;45.454;11.106;2022-08-05T13:14:17;4.65;;;2.45;;
43008;SDS011;28634;45.454;11.106;2022-08-05T13:17:01;3.17;;;2.60;;
43008;SDS011;28634;45.454;11.106;2022-08-05T13:19:33;4.00;;;2.58;;
43008;SDS011;28634;45.454;11.106;2022-08-05T13:24:53;3.67;;;2.50;;
43008;SDS011;28634;45.454;11.106;2022-08-05T13:27:30;3.95;;;2.72;;
43008;SDS011;28634;45.454;11.106;2022-08-05T13:30:03;4.13;;;2.40;;
43008;SDS011;28634;45.454;11.106;2022-08-05T13:32:52;3.22;;;2.65;;
43008;SDS011;28634;45.454;11.106;2022-08-05T13:35:21;5.20;;;2.78;;
43008;SDS011;28634;45.454;11.106;2022-08-05T13:38:08;5.57;;;2.78;;
43008;SDS011;28634;45.454;11.106;2022-08-05T13:40:59;4.45;;;2.67;;
43008;SDS011;28634;45.454;11.106;2022-08-05T13:43:36;4.97;;;2.63;;
43008;SDS011;28634;45.454;11.106;2022-08-05T13:46:22;6.18;;;2.45;;
43008;SDS011;28634;45.454;11.106;2022-08-05T13:49:21;4.15;;;2.55;;
43008;SDS011;28634;45.454;11.106;2022-08-05T13:54:54;4.35;;;2.75;;
43008;SDS011;28634;45.454;11.106;2022-08-05T13:57:26;3.53;;;2.75;;
43008;SDS011;28634;45.454;11.106;2022-08-05T14:00:23;4.03;;;3.00;;
43008;SDS011;28634;45.454;11.106;2022-08-05T14:03:21;4.28;;;2.60;;
43008;SDS011;28634;45.454;11.106;2022-08-05T14:05:49;5.63;;;2.72;;
43008;SDS011;28634;45.454;11.106;2022-08-05T14:08:36;6.53;;;2.80;;
43008;SDS011;28634;45.454;11.106;2022-08-05T14:11:04;5.00;;;2.75;;
43008;SDS011;28634;45.454;11.106;2022-08-05T14:13:47;4.40;;;2.80;;
43008;SDS011;28634;45.454;11.106;2022-08-05T14:16:20;6.93;;;2.90;;
43008;SDS011;28634;45.454;11.106;2022-08-05T14:18:48;4.47;;;3.00;;
43008;SDS011;28634;45.454;11.106;2022-08-05T14:21:16;4.57;;;2.60;;
43008;SDS011;28634;45.454;11.106;2022-08-05T14:24:04;5.03;;;2.70;;
43008;SDS011;28634;45.454;11.106;2022-08-05T14:26:36;4.25;;;2.70;;
43008;SDS011;28634;45.454;11.106;2022-08-05T14:29:23;4.35;;;2.72;;
43008;SDS011;28634;45.454;11.106;2022-08-05T14:31:51;5.75;;;2.67;;
43008;SDS011;28634;45.454;11.106;2022-08-05T14:34:38;8.23;;;2.70;;
43008;SDS011;28634;45.454;11.106;2022-08-05T14:37:07;5.70;;;3.10;;
43008;SDS011;28634;45.454;11.106;2022-08-05T14:39:38;5.88;;;2.70;;
43008;SDS011;28634;45.454;11.106;2022-08-05T14:42:22;4.07;;;2.78;;
43008;SDS011;28634;45.454;11.106;2022-08-05T14:44:50;16.73;;;3.67;;
43008;SDS011;28634;45.454;11.106;2022-08-05T14:47:21;20.50;;;4.45;;
43008;SDS011;28634;45.454;11.106;2022-08-05T14:50:09;10.43;;;3.35;;
43008;SDS011;28634;45.454;11.106;2022-08-05T14:55:18;6.03;;;3.00;;
43008;SDS011;28634;45.454;11.106;2022-08-05T14:58:05;10.20;;;2.92;;
43008;SDS011;28634;45.454;11.106;2022-08-05T15:00:39;4.13;;;2.95;;
43008;SDS011;28634;45.454;11.106;2022-08-05T15:03:28;6.35;;;2.90;;
43008;SDS011;28634;45.454;11.106;2022-08-05T15:06:04;4.70;;;3.00;;
43008;SDS011;28634;45.454;11.106;2022-08-05T15:08:41;4.32;;;2.65;;
43008;SDS011;28634;45.454;11.106;2022-08-05T15:11:29;3.45;;;2.97;;
43008;SDS011;28634;45.454;11.106;2022-08-05T15:14:19;5.38;;;2.90;;
43008;SDS011;28634;45.454;11.106;2022-08-05T15:17:06;4.45;;;2.72;;
43008;SDS011;28634;45.454;11.106;2022-08-05T15:19:54;7.28;;;2.83;;
43008;SDS011;28634;45.454;11.106;2022-08-05T15:22:22;4.53;;;2.95;;
43008;SDS011;28634;45.454;11.106;2022-08-05T15:24:53;6.25;;;2.88;;
43008;SDS011;28634;45.454;11.106;2022-08-05T15:27:21;6.90;;;2.80;;
43008;SDS011;28634;45.454;11.106;2022-08-05T15:29:51;4.72;;;2.83;;
43008;SDS011;28634;45.454;11.106;2022-08-05T15:32:22;4.90;;;3.00;;
43008;SDS011;28634;45.454;11.106;2022-08-05T15:34:54;7.40;;;2.88;;
43008;SDS011;28634;45.454;11.106;2022-08-05T15:37:37;5.85;;;2.75;;
43008;SDS011;28634;45.454;11.106;2022-08-05T15:40:24;4.32;;;3.00;;
43008;SDS011;28634;45.454;11.106;2022-08-05T15:43:12;4.07;;;2.50;;
43008;SDS011;28634;45.454;11.106;2022-08-05T15:45:46;5.57;;;3.03;;
43008;SDS011;28634;45.454;11.106;2022-08-05T15:48:26;3.13;;;2.70;;
43008;SDS011;28634;45.454;11.106;2022-08-05T15:50:55;4.57;;;2.80;;
43008;SDS011;28634;45.454;11.106;2022-08-05T15:53:29;4.55;;;2.92;;
43008;SDS011;28634;45.454;11.106;2022-08-05T15:56:15;5.20;;;2.97;;
43008;SDS011;28634;45.454;11.106;2022-08-05T15:58:43;5.53;;;2.72;;
43008;SDS011;28634;45.454;11.106;2022-08-05T16:01:12;5.25;;;2.75;;
43008;SDS011;28634;45.454;11.106;2022-08-05T16:03:43;8.93;;;3.00;;
43008;SDS011;28634;45.454;11.106;2022-08-05T16:06:16;7.53;;;2.97;;
43008;SDS011;28634;45.454;11.106;2022-08-05T16:08:46;5.03;;;2.70;;
43008;SDS011;28634;45.454;11.106;2022-08-05T16:11:16;6.03;;;3.00;;
43008;SDS011;28634;45.454;11.106;2022-08-05T16:13:46;5.22;;;2.72;;
43008;SDS011;28634;45.454;11.106;2022-08-05T16:16:13;7.85;;;2.90;;
43008;SDS011;28634;45.454;11.106;2022-08-05T16:18:50;4.13;;;2.67;;
43008;SDS011;28634;45.454;11.106;2022-08-05T16:21:22;4.00;;;2.63;;
43008;SDS011;28634;45.454;11.106;2022-08-05T16:24:09;5.15;;;2.97;;
43008;SDS011;28634;45.454;11.106;2022-08-05T16:26:58;4.55;;;3.03;;
43008;SDS011;28634;45.454;11.106;2022-08-05T16:29:29;5.25;;;2.85;;
43008;SDS011;28634;45.454;11.106;2022-08-05T16:32:02;4.15;;;2.88;;
43008;SDS011;28634;45.454;11.106;2022-08-05T16:34:35;3.55;;;2.83;;
43008;SDS011;28634;45.454;11.106;2022-08-05T16:37:07;3.50;;;2.55;;
43008;SDS011;28634;45.454;11.106;2022-08-05T16:39:56;5.82;;;2.92;;
43008;SDS011;28634;45.454;11.106;2022-08-05T16:42:32;4.22;;;2.88;;
43008;SDS011;28634;45.454;11.106;2022-08-05T16:45:02;8.27;;;3.13;;
43008;SDS011;28634;45.454;11.106;2022-08-05T16:47:52;6.07;;;2.90;;
43008;SDS011;28634;45.454;11.106;2022-08-05T16:50:26;8.65;;;3.10;;
43008;SDS011;28634;45.454;11.106;2022-08-05T16:52:53;6.43;;;2.72;;
43008;SDS011;28634;45.454;11.106;2022-08-05T16:55:47;4.78;;;2.90;;
43008;SDS011;28634;45.454;11.106;2022-08-05T16:58:18;9.38;;;3.15;;
43008;SDS011;28634;45.454;11.106;2022-08-05T17:01:00;5.85;;;2.92;;
43008;SDS011;28634;45.454;11.106;2022-08-05T17:03:35;4.57;;;2.90;;
43008;SDS011;28634;45.454;11.106;2022-08-05T17:06:21;4.72;;;2.95;;
43008;SDS011;28634;45.454;11.106;2022-08-05T17:26:47;5.47;;;2.95;;
43008;SDS011;28634;45.454;11.106;2022-08-05T17:39:12;5.45;;;3.10;;
43008;SDS011;28634;45.454;11.106;2022-08-05T17:41:49;6.38;;;3.17;;
43008;SDS011;28634;45.454;11.106;2022-08-05T17:44:41;5.22;;;3.15;;
43008;SDS011;28634;45.454;11.106;2022-08-05T17:47:19;6.05;;;3.25;;
43008;SDS011;28634;45.454;11.106;2022-08-05T17:49:56;5.70;;;3.25;;
43008;SDS011;28634;45.454;11.106;2022-08-05T17:52:38;5.85;;;2.88;;
43008;SDS011;28634;45.454;11.106;2022-08-05T17:55:22;7.38;;;4.00;;
43008;SDS011;28634;45.454;11.106;2022-08-05T17:58:04;4.05;;;3.30;;
43008;SDS011;28634;45.454;11.106;2022-08-05T18:00:35;5.63;;;3.20;;
43008;SDS011;28634;45.454;11.106;2022-08-05T18:03:13;4.97;;;3.05;;
43008;SDS011;28634;45.454;11.106;2022-08-05T18:06:06;6.63;;;3.20;;
43008;SDS011;28634;45.454;11.106;2022-08-05T18:08:40;4.38;;;3.13;;
43008;SDS011;28634;45.454;11.106;2022-08-05T18:11:18;4.43;;;3.38;;
43008;SDS011;28634;45.454;11.106;2022-08-05T18:13:58;3.67;;;3.00;;
43008;SDS011;28634;45.454;11.106;2022-08-05T18:16:39;4.45;;;3.17;;
43008;SDS011;28634;45.454;11.106;2022-08-05T18:19:25;4.57;;;2.83;;
43008;SDS011;28634;45.454;11.106;2022-08-05T18:22:00;4.70;;;2.60;;
43008;SDS011;28634;45.454;11.106;2022-08-05T18:24:45;5.13;;;3.03;;
43008;SDS011;28634;45.454;11.106;2022-08-05T18:27:27;4.72;;;3.10;;
43008;SDS011;28634;45.454;11.106;2022-08-05T18:30:03;4.65;;;3.13;;
43008;SDS011;28634;45.454;11.106;2022-08-05T18:32:39;5.45;;;3.10;;
43008;SDS011;28634;45.454;11.106;2022-08-05T18:35:32;4.78;;;2.90;;
43008;SDS011;28634;45.454;11.106;2022-08-05T18:38:31;5.40;;;3.38;;
43008;SDS011;28634;45.454;11.106;2022-08-05T18:41:09;4.20;;;3.15;;
43008;SDS011;28634;45.454;11.106;2022-08-05T18:44:13;6.00;;;3.30;;
43008;SDS011;28634;45.454;11.106;2022-08-05T18:47:01;5.25;;;3.22;;
43008;SDS011;28634;45.454;11.106;2022-08-05T18:49:40;4.00;;;3.17;;
43008;SDS011;28634;45.454;11.106;2022-08-05T18:52:39;3.65;;;3.00;;
43008;SDS011;28634;45.454;11.106;2022-08-05T18:55:50;6.18;;;3.28;;
43008;SDS011;28634;45.454;11.106;2022-08-05T18:58:42;5.05;;;3.38;;
43008;SDS011;28634;45.454;11.106;2022-08-05T19:04:54;6.10;;;4.38;;
43008;SDS011;28634;45.454;11.106;2022-08-05T19:07:48;7.28;;;3.83;;
43008;SDS011;28634;45.454;11.106;2022-08-05T19:10:38;6.93;;;3.30;;
43008;SDS011;28634;45.454;11.106;2022-08-05T19:13:18;3.50;;;2.90;;
43008;SDS011;28634;45.454;11.106;2022-08-05T19:16:01;7.03;;;3.45;;
43008;SDS011;28634;45.454;11.106;2022-08-05T19:19:02;4.47;;;3.28;;
43008;SDS011;28634;45.454;11.106;2022-08-05T19:21:46;7.30;;;3.33;;
43008;SDS011;28634;45.454;11.106;2022-08-05T19:24:51;4.35;;;2.65;;
43008;SDS011;28634;45.454;11.106;2022-08-05T19:27:35;6.03;;;2.90;;
43008;SDS011;28634;45.454;11.106;2022-08-05T19:30:08;4.82;;;3.30;;
43008;SDS011;28634;45.454;11.106;2022-08-05T19:32:58;3.35;;;3.00;;
43008;SDS011;28634;45.454;11.106;2022-08-05T19:35:30;5.32;;;3.20;;
43008;SDS011;28634;45.454;11.106;2022-08-05T19:38:25;3.25;;;2.80;;
43008;SDS011;28634;45.454;11.106;2022-08-05T19:44:34;4.45;;;3.08;;
43008;SDS011;28634;45.454;11.106;2022-08-05T19:47:13;4.88;;;3.15;;
43008;SDS011;28634;45.454;11.106;2022-08-05T19:52:35;7.05;;;3.13;;
43008;SDS011;28634;45.454;11.106;2022-08-05T19:55:29;6.45;;;2.95;;
43008;SDS011;28634;45.454;11.106;2022-08-05T19:58:27;6.28;;;2.60;;
43008;SDS011;28634;45.454;11.106;2022-08-05T20:01:21;4.45;;;3.10;;
43008;SDS011;28634;45.454;11.106;2022-08-05T20:04:17;4.13;;;2.88;;
43008;SDS011;28634;45.454;11.106;2022-08-05T20:06:51;4.10;;;2.70;;
43008;SDS011;28634;45.454;11.106;2022-08-05T20:09:29;6.13;;;3.00;;
43008;SDS011;28634;45.454;11.106;2022-08-05T20:12:18;4.85;;;2.78;;
43008;SDS011;28634;45.454;11.106;2022-08-05T20:15:04;4.20;;;2.50;;
43008;SDS011;28634;45.454;11.106;2022-08-05T20:18:06;4.40;;;2.50;;
43008;SDS011;28634;45.454;11.106;2022-08-05T20:20:59;3.60;;;2.60;;
43008;SDS011;28634;45.454;11.106;2022-08-05T20:23:38;3.75;;;2.50;;
43008;SDS011;28634;45.454;11.106;2022-08-05T20:26:23;6.65;;;2.90;;
43008;SDS011;28634;45.454;11.106;2022-08-05T20:29:20;4.57;;;2.78;;
43008;SDS011;28634;45.454;11.106;2022-08-05T20:32:17;3.78;;;2.60;;
43008;SDS011;28634;45.454;11.106;2022-08-05T20:34:51;4.20;;;2.80;;
43008;SDS011;28634;45.454;11.106;2022-08-05T20:37:21;8.07;;;2.80;;
43008;SDS011;28634;45.454;11.106;2022-08-05T20:40:18;6.13;;;2.70;;
43008;SDS011;28634;45.454;11.106;2022-08-05T20:43:00;5.43;;;2.63;;
43008;SDS011;28634;45.454;11.106;2022-08-05T20:45:41;9.27;;;3.05;;
43008;SDS011;28634;45.454;11.106;2022-08-05T20:48:32;6.50;;;2.70;;
43008;SDS011;28634;45.454;11.106;2022-08-05T20:51:07;5.38;;;2.78;;
43008;SDS011;28634;45.454;11.106;2022-08-05T20:53:44;5.88;;;2.40;;
43008;SDS011;28634;45.454;11.106;2022-08-05T20:56:26;3.80;;;2.30;;
43008;SDS011;28634;45.454;11.106;2022-08-05T20:59:07;5.15;;;2.95;;
43008;SDS011;28634;45.454;11.106;2022-08-05T21:02:00;6.68;;;2.58;;
43008;SDS011;28634;45.454;11.106;2022-08-05T21:04:34;4.88;;;2.40;;
43008;SDS011;28634;45.454;11.106;2022-08-05T21:07:38;4.90;;;2.50;;
43008;SDS011;28634;45.454;11.106;2022-08-05T21:10:42;9.95;;;2.80;;
43008;SDS011;28634;45.454;11.106;2022-08-05T21:13:26;4.95;;;2.70;;
43008;SDS011;28634;45.454;11.106;2022-08-05T21:16:28;3.80;;;2.50;;
43008;SDS011;28634;45.454;11.106;2022-08-05T21:19:05;3.80;;;2.63;;
43008;SDS011;28634;45.454;11.106;2022-08-05T21:21:54;6.35;;;2.67;;
43008;SDS011;28634;45.454;11.106;2022-08-05T21:24:42;4.75;;;2.70;;
43008;SDS011;28634;45.454;11.106;2022-08-05T21:27:27;4.82;;;2.70;;
43008;SDS011;28634;45.454;11.106;2022-08-05T21:30:12;5.30;;;2.67;;
43008;SDS011;28634;45.454;11.106;2022-08-05T21:33:13;6.68;;;2.47;;
43008;SDS011;28634;45.454;11.106;2022-08-05T21:35:51;4.85;;;2.60;;
43008;SDS011;28634;45.454;11.106;2022-08-05T21:39:06;5.47;;;2.53;;
43008;SDS011;28634;45.454;11.106;2022-08-05T21:42:17;6.25;;;2.90;;
43008;SDS011;28634;45.454;11.106;2022-08-05T21:45:29;5.70;;;3.20;;
43008;SDS011;28634;45.454;11.106;2022-08-05T21:48:46;4.40;;;2.78;;
43008;SDS011;28634;45.454;11.106;2022-08-05T21:51:57;4.05;;;2.97;;
43008;SDS011;28634;45.454;11.106;2022-08-05T21:54:54;5.80;;;2.80;;
43008;SDS011;28634;45.454;11.106;2022-08-05T21:58:02;7.70;;;2.90;;
43008;SDS011;28634;45.454;11.106;2022-08-05T22:00:51;5.85;;;2.60;;
43008;SDS011;28634;45.454;11.106;2022-08-05T22:04:01;5.57;;;2.90;;
43008;SDS011;28634;45.454;11.106;2022-08-05T22:06:54;3.80;;;2.80;;
43008;SDS011;28634;45.454;11.106;2022-08-05T22:09:31;5.85;;;3.08;;
43008;SDS011;28634;45.454;11.106;2022-08-05T22:12:21;7.35;;;2.88;;
43008;SDS011;28634;45.454;11.106;2022-08-05T22:15:09;5.47;;;2.60;;
43008;SDS011;28634;45.454;11.106;2022-08-05T22:17:42;5.85;;;3.33;;
43008;SDS011;28634;45.454;11.106;2022-08-05T22:20:24;6.32;;;3.20;;
43008;SDS011;28634;45.454;11.106;2022-08-05T22:23:05;6.22;;;3.53;;
43008;SDS011;28634;45.454;11.106;2022-08-05T22:26:12;6.40;;;3.22;;
43008;SDS011;28634;45.454;11.106;2022-08-05T22:29:06;7.13;;;3.13;;
43008;SDS011;28634;45.454;11.106;2022-08-05T22:31:55;6.30;;;3.72;;
43008;SDS011;28634;45.454;11.106;2022-08-05T22:34:35;8.05;;;4.45;;
43008;SDS011;28634;45.454;11.106;2022-08-05T22:37:06;6.05;;;3.47;;
43008;SDS011;28634;45.454;11.106;2022-08-05T22:39:44;6.88;;;3.20;;